Time;durP1;ratioP1;P1;durP2;ratioP2;P2;SDS_P1;SDS_P2;PMS_P1;PMS_P2;Temp;Humidity;BMP_temperature;BMP_pressure;BME280_temperature;BME280_humidity;BME280_pressure;Samples;Min_cycle;Max_cycle;Signal;HPM_P1;HPM_P2
2022/05/07 00:01:17;;;;;;;58.08;41.38;;;;;;;;;;5017382;28;20038;-65
2022/05/07 00:03:43;;;;;;;64.55;42.83;;;;;;;;;;5017599;28;20076;-65
2022/05/07 00:06:10;;;;;;;61.97;42.97;;;;;;;;;;5019983;28;20041;-65
2022/05/07 00:08:36;;;;;;;67.32;44.88;;;;;;;;;;5019699;28;20064;-65
2022/05/07 00:11:02;;;;;;;63.28;42.97;;;;;;;;;;5008168;28;20116;-65
2022/05/07 00:13:28;;;;;;;65.47;43.20;;;;;;;;;;5006593;28;20045;-65
2022/05/07 00:18:39;;;;;;;67.47;45.40;;;;;;;;;;5022235;28;20050;-65
2022/05/07 00:21:05;;;;;;;74.65;47.08;;;;;;;;;;5019859;28;20046;-65
2022/05/07 00:23:32;;;;;;;72.07;45.15;;;;;;;;;;5015536;28;20077;-65
2022/05/07 00:25:59;;;;;;;68.38;46.28;;;;;;;;;;5019458;28;20065;-65
2022/05/07 00:28:25;;;;;;;65.05;43.58;;;;;;;;;;5004071;28;20115;-65
2022/05/07 00:30:51;;;;;;;67.72;45.75;;;;;;;;;;5017722;28;20454;-66
2022/05/07 00:33:17;;;;;;;64.72;46.13;;;;;;;;;;4987922;28;20111;-65
2022/05/07 00:35:43;;;;;;;64.13;45.25;;;;;;;;;;5026399;28;20140;-65
2022/05/07 00:38:10;;;;;;;67.85;44.05;;;;;;;;;;5017587;28;20442;-66
2022/05/07 00:40:36;;;;;;;66.82;45.38;;;;;;;;;;5001608;28;20518;-65
2022/05/07 00:43:02;;;;;;;69.32;46.63;;;;;;;;;;5002206;28;20512;-65
2022/05/07 00:45:29;;;;;;;69.15;45.67;;;;;;;;;;5015840;28;20171;-65
2022/05/07 00:47:55;;;;;;;60.83;43.20;;;;;;;;;;5021330;28;20042;-66
2022/05/07 00:53:06;;;;;;;71.82;46.88;;;;;;;;;;5022100;28;20088;-65
2022/05/07 00:55:33;;;;;;;75.00;48.83;;;;;;;;;;5005224;28;20536;-65
2022/05/07 00:57:59;;;;;;;65.97;46.50;;;;;;;;;;5021014;28;20042;-65
2022/05/07 01:00:26;;;;;;;68.65;45.15;;;;;;;;;;4997548;28;20073;-65
2022/05/07 01:02:52;;;;;;;65.22;44.40;;;;;;;;;;5022713;28;20040;-65
2022/05/07 01:05:18;;;;;;;69.70;46.08;;;;;;;;;;5004230;28;20110;-65
2022/05/07 01:07:46;;;;;;;70.43;45.22;;;;;;;;;;5011608;28;20052;-65
2022/05/07 01:10:13;;;;;;;71.88;46.30;;;;;;;;;;5021830;28;20064;-65
2022/05/07 01:12:41;;;;;;;69.22;44.53;;;;;;;;;;5016295;28;20042;-65
2022/05/07 01:15:07;;;;;;;67.07;44.10;;;;;;;;;;5016533;28;20576;-65
2022/05/07 01:17:34;;;;;;;70.57;47.95;;;;;;;;;;5018316;28;20125;-65
2022/05/07 01:20:00;;;;;;;73.57;48.25;;;;;;;;;;5014057;28;20057;-65
2022/05/07 01:22:29;;;;;;;75.47;48.17;;;;;;;;;;5005652;28;20098;-65
2022/05/07 01:24:56;;;;;;;68.00;44.95;;;;;;;;;;5014491;28;20053;-65
2022/05/07 01:27:23;;;;;;;68.18;46.75;;;;;;;;;;4999833;28;20073;-65
2022/05/07 01:29:49;;;;;;;71.45;44.90;;;;;;;;;;5017230;28;20119;-65
2022/05/07 01:32:15;;;;;;;71.13;45.63;;;;;;;;;;5014287;28;20132;-65
2022/05/07 01:34:41;;;;;;;63.45;44.10;;;;;;;;;;4996781;28;20067;-65
2022/05/07 01:37:08;;;;;;;69.85;46.42;;;;;;;;;;5010822;28;20046;-65
2022/05/07 01:39:34;;;;;;;67.15;45.83;;;;;;;;;;5005619;28;20065;-65
2022/05/07 01:42:00;;;;;;;65.80;45.90;;;;;;;;;;5011407;28;20161;-65
2022/05/07 01:44:26;;;;;;;66.35;43.75;;;;;;;;;;5013230;28;20053;-65
2022/05/07 01:49:37;;;;;;;67.68;44.90;;;;;;;;;;5014899;28;20053;-65
2022/05/07 01:52:03;;;;;;;68.65;45.85;;;;;;;;;;5003130;28;20045;-65
2022/05/07 01:54:30;;;;;;;63.92;45.58;;;;;;;;;;5013761;28;20096;-65
2022/05/07 01:56:56;;;;;;;67.00;46.75;;;;;;;;;;5016924;28;20049;-65
2022/05/07 01:59:22;;;;;;;65.85;45.72;;;;;;;;;;5002304;28;20063;-65
2022/05/07 02:01:48;;;;;;;69.95;45.03;;;;;;;;;;5003444;28;20131;-65
2022/05/07 02:04:14;;;;;;;63.65;43.40;;;;;;;;;;5019023;28;20042;-65
2022/05/07 02:06:40;;;;;;;68.68;46.58;;;;;;;;;;5017292;28;20030;-65
2022/05/07 02:09:07;;;;;;;60.75;43.15;;;;;;;;;;5015576;28;20064;-65
2022/05/07 02:11:33;;;;;;;66.20;43.85;;;;;;;;;;5015063;28;20049;-65
2022/05/07 02:13:59;;;;;;;65.72;46.17;;;;;;;;;;5013842;28;20057;-65
2022/05/07 02:16:25;;;;;;;66.35;45.67;;;;;;;;;;5016632;28;20073;-65
2022/05/07 02:18:51;;;;;;;66.30;46.00;;;;;;;;;;4995726;28;20509;-65
2022/05/07 02:21:18;;;;;;;64.72;45.00;;;;;;;;;;5015714;28;20129;-65
2022/05/07 02:23:44;;;;;;;57.08;42.38;;;;;;;;;;5015261;28;20073;-65
2022/05/07 02:26:10;;;;;;;66.63;44.78;;;;;;;;;;5003721;28;20045;-65
2022/05/07 02:28:37;;;;;;;65.18;44.03;;;;;;;;;;5014849;28;20155;-66
2022/05/07 02:31:03;;;;;;;59.10;42.78;;;;;;;;;;4996281;28;20085;-65
2022/05/07 02:33:29;;;;;;;62.72;44.15;;;;;;;;;;5001101;28;20104;-65
2022/05/07 02:35:55;;;;;;;63.67;43.47;;;;;;;;;;4998920;28;20044;-65
2022/05/07 02:38:21;;;;;;;61.67;42.75;;;;;;;;;;5016753;28;20091;-65
2022/05/07 02:43:32;;;;;;;65.40;43.97;;;;;;;;;;5015267;28;20080;-66
2022/05/07 02:45:58;;;;;;;62.15;42.67;;;;;;;;;;5016352;28;20090;-65
2022/05/07 02:48:25;;;;;;;60.05;43.50;;;;;;;;;;5004556;28;20120;-65
2022/05/07 02:50:51;;;;;;;65.32;44.35;;;;;;;;;;4999881;28;20502;-65
2022/05/07 02:53:17;;;;;;;64.88;44.03;;;;;;;;;;5003799;28;20145;-65
2022/05/07 02:55:43;;;;;;;58.97;42.28;;;;;;;;;;5019945;28;20121;-65
2022/05/07 02:58:09;;;;;;;56.00;41.00;;;;;;;;;;5026343;28;20041;-65
2022/05/07 03:00:35;;;;;;;57.03;39.88;;;;;;;;;;5020769;28;20049;-65
2022/05/07 03:03:02;;;;;;;58.15;41.25;;;;;;;;;;5005478;28;20068;-65
2022/05/07 03:05:29;;;;;;;57.28;40.67;;;;;;;;;;5004766;28;20069;-65
2022/05/07 03:07:58;;;;;;;53.05;39.60;;;;;;;;;;5020585;28;20044;-65
2022/05/07 03:10:24;;;;;;;57.72;40.65;;;;;;;;;;5019585;28;20095;-65
2022/05/07 03:12:50;;;;;;;63.08;43.90;;;;;;;;;;5014075;28;20474;-65
2022/05/07 03:15:16;;;;;;;59.70;42.55;;;;;;;;;;5007484;28;20468;-65
2022/05/07 03:17:42;;;;;;;55.58;41.05;;;;;;;;;;5023169;28;20034;-65
2022/05/07 03:20:11;;;;;;;59.35;41.03;;;;;;;;;;5001654;28;20136;-65
2022/05/07 03:22:39;;;;;;;57.00;42.50;;;;;;;;;;5017377;28;20045;-65
2022/05/07 03:25:05;;;;;;;54.05;39.38;;;;;;;;;;5029494;28;20081;-65
2022/05/07 03:27:32;;;;;;;58.40;40.00;;;;;;;;;;5018229;28;20049;-65
2022/05/07 03:29:58;;;;;;;53.83;39.45;;;;;;;;;;5005081;28;20048;-65
2022/05/07 03:32:25;;;;;;;53.72;39.60;;;;;;;;;;5028474;28;20061;-65
2022/05/07 03:34:51;;;;;;;58.15;39.72;;;;;;;;;;5021921;28;20041;-65
2022/05/07 03:37:17;;;;;;;58.38;40.55;;;;;;;;;;5017253;28;20045;-65
2022/05/07 03:39:43;;;;;;;51.45;38.17;;;;;;;;;;5022755;28;20060;-65
2022/05/07 03:42:09;;;;;;;61.03;41.70;;;;;;;;;;5023248;28;20052;-65
2022/05/07 03:44:35;;;;;;;54.92;39.38;;;;;;;;;;5021154;28;20115;-65
2022/05/07 03:47:01;;;;;;;56.53;39.88;;;;;;;;;;5006335;28;20038;-65
2022/05/07 03:49:28;;;;;;;59.35;41.83;;;;;;;;;;5018950;28;20472;-65
2022/05/07 03:54:39;;;;;;;60.10;42.97;;;;;;;;;;5018365;28;20037;-65
2022/05/07 03:57:05;;;;;;;58.20;43.60;;;;;;;;;;5020219;28;20045;-65
2022/05/07 03:59:31;;;;;;;54.70;41.88;;;;;;;;;;5016083;28;20053;-65
2022/05/07 04:01:57;;;;;;;56.13;42.58;;;;;;;;;;5018481;28;20331;-65
2022/05/07 04:04:23;;;;;;;64.80;44.50;;;;;;;;;;5021554;28;20038;-65
2022/05/07 04:06:49;;;;;;;56.05;41.47;;;;;;;;;;5021838;28;20037;-65
2022/05/07 04:09:15;;;;;;;52.92;40.13;;;;;;;;;;5019799;28;20441;-65
2022/05/07 04:11:41;;;;;;;54.00;39.75;;;;;;;;;;5023783;28;20041;-65
2022/05/07 04:14:08;;;;;;;53.53;39.50;;;;;;;;;;5022054;28;20121;-65
2022/05/07 04:16:34;;;;;;;60.95;41.10;;;;;;;;;;5003267;28;20486;-65
2022/05/07 04:19:01;;;;;;;58.97;42.85;;;;;;;;;;5004408;28;20053;-65
2022/05/07 04:21:27;;;;;;;58.17;43.22;;;;;;;;;;5018088;28;20394;-65
2022/05/07 04:23:53;;;;;;;61.50;41.10;;;;;;;;;;5016906;28;20179;-65
2022/05/07 04:26:19;;;;;;;55.03;38.35;;;;;;;;;;5017695;28;20038;-65
2022/05/07 04:28:45;;;;;;;57.90;40.30;;;;;;;;;;5022706;28;20054;-65
2022/05/07 04:31:15;;;;;;;63.83;44.33;;;;;;;;;;5017336;28;20050;-66
2022/05/07 04:33:41;;;;;;;66.20;44.55;;;;;;;;;;5019000;28;20042;-65
2022/05/07 04:36:08;;;;;;;60.83;42.75;;;;;;;;;;5017376;28;20038;-66
2022/05/07 04:38:35;;;;;;;81.18;51.45;;;;;;;;;;4998151;28;20050;-65
2022/05/07 04:41:01;;;;;;;69.72;49.53;;;;;;;;;;5017468;28;20100;-64
2022/05/07 04:43:27;;;;;;;75.40;47.35;;;;;;;;;;5003880;28;20535;-63
2022/05/07 04:45:53;;;;;;;66.93;45.83;;;;;;;;;;5018413;28;20042;-64
2022/05/07 04:48:19;;;;;;;65.75;48.03;;;;;;;;;;5019963;28;20453;-65
2022/05/07 04:50:46;;;;;;;71.60;48.92;;;;;;;;;;5016851;28;20496;-65
2022/05/07 04:53:12;;;;;;;66.10;46.95;;;;;;;;;;5020404;28;20129;-65
2022/05/07 04:55:38;;;;;;;65.28;46.65;;;;;;;;;;5002345;28;20041;-65
2022/05/07 04:58:04;;;;;;;69.45;50.25;;;;;;;;;;5016564;28;20052;-65
2022/05/07 05:00:30;;;;;;;62.58;46.90;;;;;;;;;;4986254;28;20090;-65
2022/05/07 05:02:56;;;;;;;65.55;47.30;;;;;;;;;;5004369;28;20080;-65
2022/05/07 05:05:25;;;;;;;63.72;46.88;;;;;;;;;;5019178;28;20057;-65
2022/05/07 05:07:51;;;;;;;59.72;42.38;;;;;;;;;;5002077;28;20048;-65
2022/05/07 05:10:18;;;;;;;64.72;45.25;;;;;;;;;;5018261;28;20038;-65
2022/05/07 05:12:44;;;;;;;64.43;45.75;;;;;;;;;;5015544;28;20397;-65
2022/05/07 05:15:11;;;;;;;61.83;45.20;;;;;;;;;;5016048;28;20046;-66
2022/05/07 05:17:37;;;;;;;60.85;45.85;;;;;;;;;;5015555;28;20095;-65
2022/05/07 05:20:04;;;;;;;72.03;50.70;;;;;;;;;;5016050;28;20076;-66
2022/05/07 05:22:31;;;;;;;68.03;50.40;;;;;;;;;;4997668;28;20124;-66
2022/05/07 05:24:57;;;;;;;72.72;49.97;;;;;;;;;;4983885;28;20048;-65
2022/05/07 05:27:23;;;;;;;66.28;47.38;;;;;;;;;;5014721;28;20519;-65
2022/05/07 05:29:50;;;;;;;68.00;49.30;;;;;;;;;;5016254;28;20041;-65
2022/05/07 05:32:17;;;;;;;72.68;48.85;;;;;;;;;;5013384;28;20149;-65
2022/05/07 05:34:45;;;;;;;62.97;47.10;;;;;;;;;;5005585;28;20056;-65
2022/05/07 05:37:11;;;;;;;63.63;46.25;;;;;;;;;;5003882;28;20041;-65
2022/05/07 05:39:38;;;;;;;62.05;45.42;;;;;;;;;;4980361;28;20052;-65
2022/05/07 05:42:04;;;;;;;58.33;45.03;;;;;;;;;;5019015;28;20046;-65
2022/05/07 05:44:30;;;;;;;73.85;48.80;;;;;;;;;;5019010;28;20525;-65
2022/05/07 05:46:56;;;;;;;65.05;47.85;;;;;;;;;;4986693;28;20508;-65
2022/05/07 05:49:22;;;;;;;67.03;49.55;;;;;;;;;;5014805;28;20042;-65
2022/05/07 05:51:49;;;;;;;70.15;50.72;;;;;;;;;;5016759;28;20155;-65
2022/05/07 05:54:15;;;;;;;65.20;51.17;;;;;;;;;;5015714;28;20125;-65
2022/05/07 05:56:41;;;;;;;65.30;49.70;;;;;;;;;;5016204;28;20046;-65
2022/05/07 05:59:07;;;;;;;75.95;52.33;;;;;;;;;;5001481;28;20461;-65
2022/05/07 06:01:33;;;;;;;66.78;49.80;;;;;;;;;;5017661;28;20041;-65
2022/05/07 06:03:59;;;;;;;69.13;48.35;;;;;;;;;;5004737;28;20034;-65
2022/05/07 06:06:25;;;;;;;71.22;49.78;;;;;;;;;;4999881;28;20045;-65
2022/05/07 06:08:52;;;;;;;78.63;55.38;;;;;;;;;;5019576;28;20061;-65
2022/05/07 06:11:19;;;;;;;78.22;54.55;;;;;;;;;;5004237;28;20042;-65
2022/05/07 06:13:45;;;;;;;85.45;57.40;;;;;;;;;;4987272;28;20129;-64
2022/05/07 06:16:11;;;;;;;74.53;55.25;;;;;;;;;;5018771;28;20121;-64
2022/05/07 06:18:37;;;;;;;86.43;56.70;;;;;;;;;;5013885;28;20077;-63
2022/05/07 06:21:04;;;;;;;78.20;53.78;;;;;;;;;;5019366;28;20453;-64
2022/05/07 06:23:30;;;;;;;67.25;50.67;;;;;;;;;;5014663;28;20073;-64
2022/05/07 06:28:42;;;;;;;71.07;53.17;;;;;;;;;;5013345;28;20467;-65
2022/05/07 06:31:10;;;;;;;71.28;54.08;;;;;;;;;;5005441;28;20453;-66
2022/05/07 06:33:38;;;;;;;70.65;51.30;;;;;;;;;;5016733;28;20049;-65
2022/05/07 06:36:06;;;;;;;69.68;51.83;;;;;;;;;;5018598;28;20107;-65
2022/05/07 06:38:32;;;;;;;67.10;50.30;;;;;;;;;;5019707;28;20128;-65
2022/05/07 06:41:02;;;;;;;73.40;53.75;;;;;;;;;;5022995;28;20050;-65
2022/05/07 06:43:29;;;;;;;83.28;56.10;;;;;;;;;;5021264;28;20501;-65
2022/05/07 06:45:55;;;;;;;82.53;55.67;;;;;;;;;;5021543;28;20339;-65
2022/05/07 06:48:21;;;;;;;79.00;55.53;;;;;;;;;;5015523;28;20041;-65
2022/05/07 06:50:49;;;;;;;83.82;57.28;;;;;;;;;;5021565;28;20071;-65
2022/05/07 06:53:15;;;;;;;88.53;59.15;;;;;;;;;;5022786;28;20045;-69
2022/05/07 06:55:57;;;;;;;90.85;59.42;;;;;;;;;;5027512;28;20132;-65
2022/05/07 06:58:25;;;;;;;87.95;59.15;;;;;;;;;;5022814;28;20081;-68
2022/05/07 07:00:51;;;;;;;90.72;60.58;;;;;;;;;;5019514;28;20053;-66
2022/05/07 07:03:18;;;;;;;106.65;61.20;;;;;;;;;;5003239;28;20042;-65
2022/05/07 07:05:44;;;;;;;95.18;61.63;;;;;;;;;;5019283;28;20052;-64
2022/05/07 07:08:11;;;;;;;92.07;61.40;;;;;;;;;;5015406;28;20100;-64
2022/05/07 07:10:38;;;;;;;97.28;58.83;;;;;;;;;;5017812;28;20037;-65
2022/05/07 07:13:04;;;;;;;86.57;58.40;;;;;;;;;;5021369;28;20034;-64
2022/05/07 07:15:30;;;;;;;91.25;57.85;;;;;;;;;;5003003;28;20041;-64
2022/05/07 07:17:57;;;;;;;89.03;56.72;;;;;;;;;;5020473;28;20112;-64
2022/05/07 07:20:23;;;;;;;86.35;58.42;;;;;;;;;;5005791;28;20697;-64
2022/05/07 07:22:49;;;;;;;88.72;56.97;;;;;;;;;;5022430;28;20095;-65
2022/05/07 07:25:15;;;;;;;88.00;58.22;;;;;;;;;;5000985;28;20053;-64
2022/05/07 07:27:41;;;;;;;82.10;57.70;;;;;;;;;;5020756;28;20044;-66
2022/05/07 07:30:08;;;;;;;89.82;58.75;;;;;;;;;;5024546;28;20148;-66
2022/05/07 07:32:34;;;;;;;89.80;58.03;;;;;;;;;;5000630;28;20057;-65
2022/05/07 07:35:00;;;;;;;90.57;60.50;;;;;;;;;;5017276;28;20437;-65
2022/05/07 07:37:28;;;;;;;88.25;59.53;;;;;;;;;;5020208;28;20380;-66
2022/05/07 07:39:54;;;;;;;94.80;61.35;;;;;;;;;;5016064;28;20053;-65
2022/05/07 07:42:23;;;;;;;97.45;60.08;;;;;;;;;;5020422;28;20071;-65
2022/05/07 07:47:56;;;;;;;91.55;58.78;;;;;;;;;;5022065;28;20053;-66
2022/05/07 07:50:20;;;;;;;106.75;66.70;;;;;;;;;;5006005;28;20088;-67
2022/05/07 07:52:47;;;;;;;106.93;65.25;;;;;;;;;;5015276;28;20107;-66
2022/05/07 07:55:13;;;;;;;114.18;65.47;;;;;;;;;;5034182;28;20058;-66
2022/05/07 07:57:39;;;;;;;98.90;60.30;;;;;;;;;;5033724;28;20100;-66
2022/05/07 08:00:06;;;;;;;90.43;55.03;;;;;;;;;;5015603;28;20385;-66
2022/05/07 08:02:32;;;;;;;101.07;59.72;;;;;;;;;;5015521;28;20048;-66
2022/05/07 08:04:58;;;;;;;104.53;60.53;;;;;;;;;;5033741;28;20141;-66
2022/05/07 08:12:54;;;;;;;97.90;57.55;;;;;;;;;;5015015;28;20064;-66
2022/05/07 08:15:23;;;;;;;104.38;62.38;;;;;;;;;;5033099;28;20073;-66
2022/05/07 08:17:51;;;;;;;101.93;58.83;;;;;;;;;;5033743;28;20400;-66
2022/05/07 08:20:18;;;;;;;96.63;58.28;;;;;;;;;;5015457;28;20079;-66
2022/05/07 08:22:44;;;;;;;100.00;58.38;;;;;;;;;;5032449;28;20037;-66
2022/05/07 08:25:10;;;;;;;79.97;51.50;;;;;;;;;;5033358;28;20049;-66
2022/05/07 08:27:37;;;;;;;85.43;54.08;;;;;;;;;;5033684;28;20041;-66
2022/05/07 08:30:04;;;;;;;79.55;50.83;;;;;;;;;;5014781;28;20532;-66
2022/05/07 08:32:30;;;;;;;79.07;48.92;;;;;;;;;;5015118;28;20224;-66
2022/05/07 08:34:56;;;;;;;76.05;48.92;;;;;;;;;;5014881;28;20065;-66
2022/05/07 08:37:22;;;;;;;75.75;48.50;;;;;;;;;;5033037;28;20052;-66
2022/05/07 08:39:48;;;;;;;80.63;49.45;;;;;;;;;;5015213;28;20041;-66
2022/05/07 08:42:15;;;;;;;73.82;49.83;;;;;;;;;;5014599;28;20437;-66
2022/05/07 08:44:42;;;;;;;60.35;39.90;;;;;;;;;;4999225;28;20374;-66
2022/05/07 08:47:08;;;;;;;58.47;40.40;;;;;;;;;;5015507;28;20045;-66
2022/05/07 08:49:35;;;;;;;69.15;46.70;;;;;;;;;;5014270;28;20124;-66
2022/05/07 08:52:02;;;;;;;57.83;41.20;;;;;;;;;;5032804;28;20038;-66
2022/05/07 08:54:29;;;;;;;58.25;39.60;;;;;;;;;;5032544;28;20057;-66
2022/05/07 08:56:56;;;;;;;58.58;38.25;;;;;;;;;;5031644;28;20274;-66
2022/05/07 08:59:23;;;;;;;53.28;36.33;;;;;;;;;;4998868;28;20469;-66
2022/05/07 09:01:49;;;;;;;51.50;34.30;;;;;;;;;;5014801;28;20553;-66
2022/05/07 09:04:15;;;;;;;48.28;31.60;;;;;;;;;;5031683;28;20432;-66
2022/05/07 09:06:41;;;;;;;51.08;33.30;;;;;;;;;;5032985;28;20048;-66
2022/05/07 09:09:07;;;;;;;52.92;36.60;;;;;;;;;;5032574;28;20042;-66
2022/05/07 09:11:42;;;;;;;60.22;38.40;;;;;;;;;;5031742;28;20049;-66
2022/05/07 09:14:09;;;;;;;57.95;39.92;;;;;;;;;;5032328;28;20112;-66
2022/05/07 09:16:37;;;;;;;58.35;41.33;;;;;;;;;;5032484;28;20202;-66
2022/05/07 09:19:03;;;;;;;59.97;42.72;;;;;;;;;;5031664;28;20117;-66
2022/05/07 09:21:29;;;;;;;55.60;38.20;;;;;;;;;;5032546;28;20038;-66
2022/05/07 09:23:56;;;;;;;53.47;36.15;;;;;;;;;;5032736;28;20430;-66
2022/05/07 09:26:24;;;;;;;55.28;34.15;;;;;;;;;;5031362;28;20508;-66
2022/05/07 09:28:50;;;;;;;44.42;30.58;;;;;;;;;;5032276;28;20060;-66
2022/05/07 09:31:24;;;;;;;47.08;30.15;;;;;;;;;;5012503;28;20076;-66
2022/05/07 09:33:50;;;;;;;59.72;38.92;;;;;;;;;;5032657;28;20087;-66
2022/05/07 09:36:16;;;;;;;77.90;50.88;;;;;;;;;;5031980;28;20048;-66
2022/05/07 09:38:43;;;;;;;80.80;55.08;;;;;;;;;;5031628;28;20128;-66
2022/05/07 09:41:19;;;;;;;75.53;48.95;;;;;;;;;;5031962;28;20164;-66
2022/05/07 09:43:46;;;;;;;85.78;54.55;;;;;;;;;;5014556;28;20064;-66
2022/05/07 09:46:12;;;;;;;77.57;49.70;;;;;;;;;;5013107;28;20418;-66
2022/05/07 09:48:39;;;;;;;69.13;44.70;;;;;;;;;;5032250;28;20041;-66
2022/05/07 09:51:06;;;;;;;53.75;38.08;;;;;;;;;;5032083;28;20163;-66
2022/05/07 09:59:02;;;;;;;40.33;28.55;;;;;;;;;;5014038;28;20049;-66
2022/05/07 10:01:32;;;;;;;34.35;24.73;;;;;;;;;;5013203;28;20128;-66
2022/05/07 10:04:06;;;;;;;38.08;25.73;;;;;;;;;;5031407;28;20080;-66
2022/05/07 10:06:50;;;;;;;34.45;23.65;;;;;;;;;;5030885;28;20045;-66
2022/05/07 10:09:25;;;;;;;29.20;20.63;;;;;;;;;;5031706;28;20037;-66
2022/05/07 10:11:53;;;;;;;25.17;16.20;;;;;;;;;;5031909;28;20115;-66
2022/05/07 10:14:26;;;;;;;26.45;17.92;;;;;;;;;;5030890;28;20041;-66
2022/05/07 10:16:52;;;;;;;;;;;;;;;;;;5014856;28;20405;-66
2022/05/07 10:19:18;;;;;;;24.27;16.42;;;;;;;;;;5013561;28;19959;-66
2022/05/07 10:21:54;;;;;;;24.40;16.17;;;;;;;;;;5013245;28;20045;-66
2022/05/07 10:24:20;;;;;;;24.52;15.00;;;;;;;;;;5014098;28;20044;-66
2022/05/07 10:26:46;;;;;;;20.83;13.32;;;;;;;;;;5031838;28;20041;-66
2022/05/07 10:29:25;;;;;;;19.08;11.10;;;;;;;;;;5012295;28;20053;-66
2022/05/07 10:32:01;;;;;;;17.17;11.43;;;;;;;;;;5013744;28;20096;-66
2022/05/07 10:34:27;;;;;;;15.85;10.23;;;;;;;;;;5030904;28;20072;-66
2022/05/07 10:37:02;;;;;;;15.50;10.52;;;;;;;;;;5013768;28;20543;-65
2022/05/07 10:39:28;;;;;;;14.50;9.25;;;;;;;;;;5017698;28;20348;-64
2022/05/07 10:41:54;;;;;;;13.38;8.93;;;;;;;;;;5008697;28;20981;-65
2022/05/07 10:44:30;;;;;;;15.35;9.63;;;;;;;;;;5012909;28;20045;-65
2022/05/07 10:46:57;;;;;;;26.98;16.85;;;;;;;;;;5012932;28;20099;-65
2022/05/07 10:49:23;;;;;;;23.38;16.05;;;;;;;;;;4996337;28;20068;-65
2022/05/07 10:51:57;;;;;;;24.48;15.95;;;;;;;;;;5022186;28;20029;-65
2022/05/07 10:54:26;;;;;;;23.48;16.08;;;;;;;;;;4998720;28;20048;-66
2022/05/07 10:56:53;;;;;;;26.98;17.90;;;;;;;;;;5009026;28;20037;-65
2022/05/07 10:59:20;;;;;;;24.52;17.23;;;;;;;;;;5013435;28;20053;-65
2022/05/07 11:01:46;;;;;;;23.98;17.88;;;;;;;;;;5007633;28;20038;-65
2022/05/07 11:04:14;;;;;;;21.77;15.05;;;;;;;;;;5008850;28;20049;-65
2022/05/07 11:06:43;;;;;;;19.98;15.00;;;;;;;;;;5011948;28;20544;-65
2022/05/07 11:09:16;;;;;;;19.02;13.88;;;;;;;;;;5012427;28;20493;-65
2022/05/07 11:11:44;;;;;;;19.55;14.60;;;;;;;;;;4997113;28;20053;-65
2022/05/07 11:14:11;;;;;;;17.30;12.77;;;;;;;;;;5014381;28;20536;-65
2022/05/07 11:16:44;;;;;;;18.55;12.60;;;;;;;;;;5003704;28;20050;-65
2022/05/07 11:19:11;;;;;;;19.42;12.65;;;;;;;;;;4996008;28;20064;-65
2022/05/07 11:21:38;;;;;;;21.48;13.68;;;;;;;;;;5019818;28;20091;-65
2022/05/07 11:24:05;;;;;;;18.75;12.85;;;;;;;;;;5018190;28;20045;-65
2022/05/07 11:26:31;;;;;;;21.40;13.00;;;;;;;;;;5021388;28;20125;-65
2022/05/07 11:28:58;;;;;;;21.08;13.60;;;;;;;;;;5002677;28;20124;-65
2022/05/07 11:31:29;;;;;;;20.02;14.23;;;;;;;;;;5020750;28;20051;-65
2022/05/07 11:34:04;;;;;;;16.63;12.55;;;;;;;;;;5019696;28;20056;-65
2022/05/07 11:36:30;;;;;;;17.33;13.45;;;;;;;;;;5019365;28;20169;-65
2022/05/07 11:38:58;;;;;;;16.83;12.02;;;;;;;;;;5024194;28;20128;-65
2022/05/07 11:41:24;;;;;;;17.23;11.98;;;;;;;;;;5008937;28;20045;-65
2022/05/07 11:46:46;;;;;;;20.15;13.27;;;;;;;;;;5000126;28;20371;-65
2022/05/07 11:49:13;;;;;;;16.20;9.40;;;;;;;;;;5018766;28;20057;-65
2022/05/07 11:51:39;;;;;;;14.73;10.50;;;;;;;;;;5009067;28;20068;-65
2022/05/07 11:54:09;;;;;;;16.55;9.90;;;;;;;;;;5001274;28;20066;-65
2022/05/07 11:56:49;;;;;;;14.73;10.60;;;;;;;;;;5020237;28;20530;-65
2022/05/07 11:59:15;;;;;;;16.98;11.88;;;;;;;;;;5016050;28;20420;-65
2022/05/07 12:01:41;;;;;;;16.38;11.63;;;;;;;;;;5015039;28;20042;-66
2022/05/07 12:04:09;;;;;;;18.58;12.30;;;;;;;;;;5017719;28;20049;-65
2022/05/07 12:06:35;;;;;;;17.63;12.30;;;;;;;;;;5016346;28;20068;-64
2022/05/07 12:09:11;;;;;;;18.73;13.90;;;;;;;;;;5013817;28;20049;-65
2022/05/07 12:11:37;;;;;;;19.67;12.48;;;;;;;;;;5011970;28;20046;-68
2022/05/07 12:14:03;;;;;;;20.60;14.93;;;;;;;;;;5012348;28;20072;-68
2022/05/07 12:19:14;;;;;;;21.25;12.57;;;;;;;;;;5015104;28;20048;-68
2022/05/07 12:29:55;;;;;;;19.63;13.90;;;;;;;;;;5017931;28;20132;-68
2022/05/07 12:32:24;;;;;;;19.92;13.35;;;;;;;;;;5019527;28;20136;-68
2022/05/07 12:34:50;;;;;;;17.50;11.77;;;;;;;;;;4999459;28;20401;-68
2022/05/07 12:37:17;;;;;;;15.70;11.93;;;;;;;;;;5016506;28;20046;-68
2022/05/07 12:39:43;;;;;;;17.15;11.20;;;;;;;;;;5014838;28;20048;-68
2022/05/07 12:42:11;;;;;;;12.00;9.95;;;;;;;;;;5013794;28;20057;-68
2022/05/07 12:44:38;;;;;;;15.52;10.02;;;;;;;;;;5015127;28;20054;-68
2022/05/07 12:47:06;;;;;;;14.65;8.57;;;;;;;;;;5002641;28;20442;-68
2022/05/07 12:49:33;;;;;;;14.93;9.70;;;;;;;;;;5018730;28;20059;-68
2022/05/07 12:51:59;;;;;;;14.63;10.07;;;;;;;;;;5018463;28;20193;-68
2022/05/07 12:54:25;;;;;;;15.20;10.90;;;;;;;;;;5020022;28;20058;-68
2022/05/07 12:56:52;;;;;;;10.75;8.73;;;;;;;;;;5015790;28;20502;-68
2022/05/07 12:59:18;;;;;;;12.52;8.30;;;;;;;;;;5017387;28;20060;-69
2022/05/07 13:01:44;;;;;;;15.05;8.07;;;;;;;;;;5015330;28;20060;-68
2022/05/07 13:04:10;;;;;;;12.77;8.30;;;;;;;;;;5017316;28;20366;-68
2022/05/07 13:06:36;;;;;;;11.48;8.07;;;;;;;;;;5016348;28;20042;-68
2022/05/07 13:09:03;;;;;;;10.75;7.72;;;;;;;;;;5008217;28;20388;-67
2022/05/07 13:11:29;;;;;;;10.35;7.38;;;;;;;;;;5006209;28;20041;-67
2022/05/07 13:13:56;;;;;;;10.93;7.22;;;;;;;;;;5003674;28;20126;-67
2022/05/07 13:16:22;;;;;;;12.85;7.28;;;;;;;;;;5019503;28;20037;-65
2022/05/07 13:18:48;;;;;;;12.40;6.72;;;;;;;;;;5021079;28;20096;-65
2022/05/07 13:21:15;;;;;;;8.00;5.35;;;;;;;;;;5001120;28;20049;-65
2022/05/07 13:23:41;;;;;;;6.55;4.75;;;;;;;;;;5013501;28;20037;-65
2022/05/07 13:26:07;;;;;;;11.05;6.57;;;;;;;;;;5005764;28;20046;-65
2022/05/07 13:28:34;;;;;;;8.90;5.63;;;;;;;;;;5013895;28;20038;-65
2022/05/07 13:31:00;;;;;;;9.15;5.82;;;;;;;;;;5012100;28;20989;-65
2022/05/07 13:33:27;;;;;;;9.55;5.93;;;;;;;;;;5016260;28;20401;-65
2022/05/07 13:35:54;;;;;;;9.57;6.43;;;;;;;;;;5019037;28;20046;-65
2022/05/07 13:38:20;;;;;;;12.07;7.72;;;;;;;;;;5005640;28;20049;-65
2022/05/07 13:40:46;;;;;;;11.73;7.80;;;;;;;;;;5018585;28;20198;-65
2022/05/07 13:43:13;;;;;;;11.80;7.68;;;;;;;;;;5004595;28;20045;-65
2022/05/07 13:45:39;;;;;;;11.98;7.28;;;;;;;;;;4994205;28;20481;-65
2022/05/07 13:48:06;;;;;;;10.43;6.70;;;;;;;;;;5017306;28;20045;-65
2022/05/07 13:50:32;;;;;;;10.55;6.40;;;;;;;;;;5002687;28;20409;-65
2022/05/07 13:52:59;;;;;;;10.80;6.35;;;;;;;;;;5015207;28;20109;-65
2022/05/07 13:55:25;;;;;;;7.55;5.55;;;;;;;;;;5002005;28;20049;-65
2022/05/07 13:57:51;;;;;;;8.45;5.05;;;;;;;;;;5015908;28;20100;-65
2022/05/07 14:00:18;;;;;;;7.47;4.97;;;;;;;;;;5012057;28;21751;-65
2022/05/07 14:02:46;;;;;;;7.88;5.05;;;;;;;;;;5015686;28;20049;-64
2022/05/07 14:05:13;;;;;;;6.30;4.43;;;;;;;;;;5012843;28;20054;-65
2022/05/07 14:07:39;;;;;;;5.47;3.47;;;;;;;;;;5016252;28;20034;-65
2022/05/07 14:10:06;;;;;;;6.10;3.88;;;;;;;;;;5015054;28;20049;-65
2022/05/07 14:12:32;;;;;;;8.32;3.22;;;;;;;;;;5015062;28;20076;-65
2022/05/07 14:14:59;;;;;;;6.65;3.47;;;;;;;;;;5011620;28;20041;-65
2022/05/07 14:17:25;;;;;;;5.05;3.33;;;;;;;;;;4980804;28;20089;-65
2022/05/07 14:19:52;;;;;;;5.18;3.13;;;;;;;;;;5002769;28;20048;-66
2022/05/07 14:22:19;;;;;;;5.25;2.67;;;;;;;;;;5021374;28;20373;-65
2022/05/07 14:24:45;;;;;;;4.75;2.58;;;;;;;;;;5014866;28;20088;-65
2022/05/07 14:27:11;;;;;;;3.50;2.20;;;;;;;;;;5000189;28;20126;-65
2022/05/07 14:29:37;;;;;;;5.55;2.80;;;;;;;;;;4998219;28;20946;-64
2022/05/07 14:32:04;;;;;;;7.53;6.00;;;;;;;;;;5018946;28;20045;-64
2022/05/07 14:34:31;;;;;;;8.02;5.28;;;;;;;;;;5006244;28;20061;-64
2022/05/07 14:36:57;;;;;;;9.52;5.80;;;;;;;;;;5001922;28;20052;-64
2022/05/07 14:39:24;;;;;;;7.10;5.38;;;;;;;;;;5019978;28;20185;-64
2022/05/07 14:41:50;;;;;;;5.93;4.40;;;;;;;;;;5009291;28;20048;-64
2022/05/07 14:44:16;;;;;;;6.72;5.60;;;;;;;;;;5018115;28;20045;-69
2022/05/07 14:46:42;;;;;;;7.22;5.72;;;;;;;;;;5022339;28;20128;-63
2022/05/07 14:49:10;;;;;;;9.13;6.03;;;;;;;;;;5010725;28;20050;-64
2022/05/07 14:51:38;;;;;;;8.43;7.07;;;;;;;;;;5020645;28;20042;-64
2022/05/07 14:54:04;;;;;;;9.13;6.68;;;;;;;;;;5013868;28;20045;-64
2022/05/07 14:56:32;;;;;;;9.02;6.68;;;;;;;;;;5014862;28;20149;-64
2022/05/07 14:58:58;;;;;;;12.35;8.13;;;;;;;;;;5021336;28;20041;-64
2022/05/07 15:01:25;;;;;;;15.38;7.95;;;;;;;;;;5013381;28;20045;-64
2022/05/07 15:03:52;;;;;;;10.15;7.43;;;;;;;;;;5017178;28;20464;-64